This is the latest recevied weather packets stored in our database for station/object YO8PIC-5. If no packets are shown the sender has not sent any weather packets the latest 10 day(s).
| Time | Temp. | Humidity | Pressure | Rain* | Wind** | Luminosity | Snow |
|---|---|---|---|---|---|---|---|
| 1777121802 | 21.67° C | 24% | 1010.7 hPa | - | - | - | - |
| 1777120901 | 20° C | 27% | 1010.9 hPa | - | - | - | - |
| 1777120005 | 20.56° C | 27% | 1011 hPa | - | - | - | - |
| 1777119105 | 22.22° C | 26% | 1011.4 hPa | - | - | - | - |
| 1777118205 | 22.78° C | 25% | 1011.6 hPa | - | - | - | - |
| 1777117305 | 20° C | 27% | 1011.7 hPa | - | - | - | - |
| 1777116404 | 19.44° C | 26% | 1011.9 hPa | - | - | - | - |
| 1777115504 | 20.56° C | 27% | 1012.1 hPa | - | - | - | - |
| 1777114604 | 20° C | 27% | 1012.2 hPa | - | - | - | - |
| 1777113704 | 20.56° C | 27% | 1012.4 hPa | - | - | - | - |
| 1777112804 | 21.11° C | 26% | 1012.6 hPa | - | - | - | - |
| 1777111903 | 16.67° C | 31% | 1012.6 hPa | - | - | - | - |
| 1777111003 | 17.78° C | 30% | 1013 hPa | - | - | - | - |
| 1777110103 | 21.11° C | 26% | 1013 hPa | - | - | - | - |
| 1777109202 | 20° C | 28% | 1013 hPa | - | - | - | - |
| 1777108302 | 17.22° C | 30% | 1013.1 hPa | - | - | - | - |
| 1777107401 | 17.78° C | 33% | 1013.1 hPa | - | - | - | - |
| 1777106501 | 18.89° C | 31% | 1013.3 hPa | - | - | - | - |
| 1777105601 | 16.67° C | 33% | 1013.4 hPa | - | - | - | - |
| 1777104700 | 18.33° C | 27% | 1013.6 hPa | - | - | - | - |
| 1777103800 | 16.67° C | 31% | 1013.6 hPa | - | - | - | - |
| 1777102900 | 13.33° C | 36% | 1013.6 hPa | - | - | - | - |
| 1777102000 | 13.89° C | 38% | 1013.7 hPa | - | - | - | - |
| 1777101100 | 12.22° C | 42% | 1013.7 hPa | - | - | - | - |
| 1777100199 | 12.22° C | 43% | 1013.6 hPa | - | - | - | - |
* Rain since midnight (hover to see other rain measurements)
** Current wind speed in m/s (hover to see current wind gust speed)